Time;durP1;ratioP1;P1;durP2;ratioP2;P2;SDS_P1;SDS_P2;PMS_P1;PMS_P2;Temp;Humidity;BMP_temperature;BMP_pressure;BME280_temperature;BME280_humidity;BME280_pressure;Samples;Min_cycle;Max_cycle;Signal;HPM_P1;HPM_P2
2024/01/18 00:00:59;;;;;;;1.43;1.20;;;;;;;9.79;100.00;93639.13;5039734;28;20213;-67
2024/01/18 00:03:25;;;;;;;1.37;1.10;;;;;;;9.81;100.00;93639.69;5039859;28;20916;-67
2024/01/18 00:05:53;;;;;;;1.77;1.23;;;;;;;9.86;100.00;93636.34;5039003;28;20209;-67
2024/01/18 00:08:20;;;;;;;0.63;0.63;;;;;;;9.68;100.00;93642.56;5040293;28;20225;-67
2024/01/18 00:10:46;;;;;;;1.40;1.07;;;;;;;9.75;100.00;93639.84;5039299;28;20208;-67
2024/01/18 00:13:13;;;;;;;2.07;1.30;;;;;;;9.73;100.00;93636.63;5039425;28;20224;-67
2024/01/18 00:15:39;;;;;;;1.93;1.30;;;;;;;9.75;100.00;93643.25;5039276;28;20201;-67
2024/01/18 00:18:06;;;;;;;1.97;1.10;;;;;;;9.73;100.00;93642.69;5038583;28;20227;-67
2024/01/18 00:20:32;;;;;;;1.90;1.20;;;;;;;9.63;100.00;93646.16;5039292;28;20667;-66
2024/01/18 00:23:00;;;;;;;1.67;1.03;;;;;;;9.86;100.00;93641.59;5039585;28;20284;-67
2024/01/18 00:25:27;;;;;;;1.07;0.93;;;;;;;9.73;100.00;93637.41;5039258;28;20197;-67
2024/01/18 00:27:53;;;;;;;1.20;1.00;;;;;;;9.67;100.00;93627.03;5038840;28;20234;-66
2024/01/18 00:30:20;;;;;;;0.60;0.60;;;;;;;9.78;100.00;93629.63;5039242;28;20568;-67
2024/01/18 00:32:46;;;;;;;4.13;1.50;;;;;;;9.75;100.00;93635.38;5039081;28;20243;-67
2024/01/18 00:35:12;;;;;;;1.73;0.90;;;;;;;9.75;100.00;93639.84;5038910;28;20212;-67
2024/01/18 00:37:39;;;;;;;1.63;0.90;;;;;;;9.75;100.00;93650.34;5039331;28;20217;-67
2024/01/18 00:40:08;;;;;;;0.93;0.73;;;;;;;9.99;100.00;93651.88;5039010;28;20980;-67
2024/01/18 00:42:35;;;;;;;1.77;1.00;;;;;;;9.89;100.00;93654.28;5039225;28;20233;-67
2024/01/18 00:45:01;;;;;;;0.60;0.57;;;;;;;9.75;100.00;93653.78;5039470;28;20675;-67
2024/01/18 00:47:28;;;;;;;1.10;0.80;;;;;;;9.92;100.00;93654.63;5039042;28;20220;-67
2024/01/18 00:49:54;;;;;;;1.10;0.77;;;;;;;9.79;100.00;93657.53;5039520;28;20209;-67
2024/01/18 00:52:20;;;;;;;2.43;0.90;;;;;;;9.90;100.00;93650.63;5038647;28;20204;-67
2024/01/18 00:54:47;;;;;;;0.93;0.80;;;;;;;9.80;100.00;93653.88;5038934;28;21159;-67
2024/01/18 00:57:15;;;;;;;1.43;0.87;;;;;;;9.97;100.00;93652.13;5038700;28;20227;-67
2024/01/18 00:59:41;;;;;;;0.60;0.53;;;;;;;10.02;100.00;93646.16;5038403;28;20209;-67
2024/01/18 01:02:08;;;;;;;0.80;0.70;;;;;;;9.78;100.00;93655.13;5038387;28;20205;-67
2024/01/18 01:04:34;;;;;;;0.60;0.60;;;;;;;9.93;100.00;93672.00;5038346;28;20200;-67
2024/01/18 01:07:01;;;;;;;0.57;0.50;;;;;;;9.90;100.00;93669.84;5037747;28;20225;-67
2024/01/18 01:09:28;;;;;;;1.00;0.77;;;;;;;9.84;100.00;93660.25;5038599;28;20202;-67
2024/01/18 01:11:56;;;;;;;0.97;0.77;;;;;;;9.87;100.00;93667.66;5038724;28;20208;-67
2024/01/18 01:14:24;;;;;;;0.47;0.47;;;;;;;9.87;100.00;93666.88;5038169;28;20225;-67
2024/01/18 01:16:50;;;;;;;0.77;0.77;;;;;;;9.76;100.00;93668.53;5037386;28;20229;-67
2024/01/18 01:19:17;;;;;;;0.53;0.50;;;;;;;9.73;100.00;93668.97;5037530;28;20571;-67
2024/01/18 01:21:43;;;;;;;0.77;0.60;;;;;;;9.75;100.00;93666.13;5038438;28;20205;-67
2024/01/18 01:24:10;;;;;;;0.80;0.70;;;;;;;9.73;100.00;93662.94;5037986;28;20208;-67
2024/01/18 01:26:36;;;;;;;0.93;0.63;;;;;;;9.78;100.00;93658.56;5037781;28;20220;-67
2024/01/18 01:29:03;;;;;;;0.70;0.60;;;;;;;9.71;100.00;93671.06;5038044;28;20610;-67
2024/01/18 01:31:31;;;;;;;1.17;0.80;;;;;;;10.12;100.00;93662.91;5038305;28;20336;-67
2024/01/18 01:33:58;;;;;;;0.63;0.53;;;;;;;9.77;100.00;93664.84;5038300;28;20221;-67
2024/01/18 01:36:24;;;;;;;0.60;0.60;;;;;;;9.89;100.00;93672.69;5037315;28;20232;-67
2024/01/18 01:38:51;;;;;;;0.70;0.67;;;;;;;9.85;100.00;93664.50;5037810;28;20557;-66
2024/01/18 01:41:17;;;;;;;1.47;0.80;;;;;;;9.92;100.00;93673.03;5038147;28;20205;-67
2024/01/18 01:43:56;;;;;;;1.30;0.80;;;;;;;10.17;100.00;93668.28;5037938;28;20208;-66
2024/01/18 01:46:23;;;;;;;0.57;0.57;;;;;;;9.87;100.00;93675.56;5037610;28;20271;-67
2024/01/18 01:48:51;;;;;;;1.43;0.70;;;;;;;9.94;100.00;93680.69;5035914;28;20208;-67
2024/01/18 01:51:17;;;;;;;0.77;0.50;;;;;;;9.84;100.00;93688.41;5037646;28;20205;-67
2024/01/18 01:53:44;;;;;;;0.90;0.73;;;;;;;9.89;100.00;93677.94;5037431;28;20233;-67
2024/01/18 01:56:10;;;;;;;1.00;0.80;;;;;;;9.90;100.00;93680.38;5036822;28;20204;-67
2024/01/18 01:58:37;;;;;;;0.67;0.67;;;;;;;9.55;100.00;93685.97;5037543;28;20212;-67
2024/01/18 02:01:04;;;;;;;0.50;0.50;;;;;;;9.79;100.00;93672.53;5037165;28;20211;-67
2024/01/18 02:03:30;;;;;;;0.90;0.60;;;;;;;9.77;100.00;93675.34;5037851;28;20208;-67
2024/01/18 02:05:58;;;;;;;1.13;0.70;;;;;;;9.95;100.00;93677.84;5037008;28;20201;-67
2024/01/18 02:08:25;;;;;;;0.83;0.60;;;;;;;9.70;100.00;93677.34;5036971;28;20296;-67
2024/01/18 02:10:52;;;;;;;0.50;0.50;;;;;;;9.79;100.00;93681.19;5037599;28;20220;-67
2024/01/18 02:13:19;;;;;;;0.90;0.63;;;;;;;9.84;100.00;93676.03;5037628;28;20225;-67
2024/01/18 02:15:46;;;;;;;1.00;0.50;;;;;;;9.76;100.00;93663.28;5037027;28;20205;-67
2024/01/18 02:18:13;;;;;;;0.60;0.60;;;;;;;9.67;100.00;93674.38;5035334;28;20236;-66
2024/01/18 02:20:39;;;;;;;2.00;0.93;;;;;;;9.54;100.00;93671.22;5037751;28;20672;-67
2024/01/18 02:23:09;;;;;;;0.40;0.40;;;;;;;9.79;100.00;93673.31;5037071;28;20201;-67
2024/01/18 02:25:37;;;;;;;3.30;1.33;;;;;;;9.70;100.00;93679.19;5036389;28;20197;-67
2024/01/18 02:28:04;;;;;;;0.67;0.67;;;;;;;9.68;100.00;93681.22;5036781;28;20217;-67
2024/01/18 02:30:31;;;;;;;0.60;0.53;;;;;;;9.75;100.00;93687.97;5036640;28;20220;-67
2024/01/18 02:32:57;;;;;;;0.60;0.60;;;;;;;9.64;100.00;93693.25;5037275;28;20208;-67
2024/01/18 02:35:24;;;;;;;0.50;0.50;;;;;;;9.71;100.00;93692.09;5036899;28;20656;-67
2024/01/18 02:37:51;;;;;;;0.50;0.50;;;;;;;9.75;100.00;93692.44;5036673;28;20225;-67
2024/01/18 02:40:17;;;;;;;1.80;0.60;;;;;;;9.58;100.00;93696.78;5036761;28;20201;-67
2024/01/18 02:42:45;;;;;;;0.70;0.53;;;;;;;9.87;100.00;93691.34;5037230;28;20573;-67
2024/01/18 02:45:12;;;;;;;0.77;0.77;;;;;;;9.60;100.00;93692.13;5036639;28;20193;-67
2024/01/18 02:47:39;;;;;;;0.30;0.30;;;;;;;9.66;100.00;93685.94;5036223;28;20217;-67
2024/01/18 02:50:06;;;;;;;0.50;0.50;;;;;;;9.82;100.00;93682.56;5036763;28;20553;-67
2024/01/18 02:52:33;;;;;;;1.33;0.70;;;;;;;9.74;100.00;93686.34;5036293;28;20211;-67
2024/01/18 02:55:00;;;;;;;0.57;0.50;;;;;;;9.56;100.00;93684.91;5036622;28;20306;-67
2024/01/18 02:57:26;;;;;;;0.20;0.20;;;;;;;9.53;100.00;93674.88;5036568;28;20853;-67
2024/01/18 02:59:54;;;;;;;0.40;0.40;;;;;;;9.79;100.00;93678.56;5037053;28;20216;-67
2024/01/18 03:02:22;;;;;;;0.47;0.47;;;;;;;9.60;100.00;93672.91;5036788;28;20687;-67
2024/01/18 03:04:48;;;;;;;0.43;0.43;;;;;;;9.61;100.00;93667.44;5036446;28;20197;-67
2024/01/18 03:07:15;;;;;;;0.43;0.43;;;;;;;9.53;100.00;93672.25;5036837;28;20224;-67
2024/01/18 03:09:41;;;;;;;0.50;0.50;;;;;;;9.52;100.00;93658.31;5036825;28;20215;-68
2024/01/18 03:12:08;;;;;;;0.43;0.40;;;;;;;9.40;100.00;93648.84;5036591;28;21044;-67
2024/01/18 03:14:35;;;;;;;0.40;0.40;;;;;;;9.44;100.00;93650.75;5036945;28;20227;-67
2024/01/18 03:17:03;;;;;;;0.50;0.50;;;;;;;9.44;100.00;93644.72;5035422;28;20225;-67
2024/01/18 03:19:29;;;;;;;0.97;0.40;;;;;;;9.32;100.00;93641.34;5035538;28;20201;-67
2024/01/18 03:21:56;;;;;;;1.23;0.40;;;;;;;9.38;100.00;93635.94;5036786;28;20202;-67
2024/01/18 03:24:23;;;;;;;0.60;0.60;;;;;;;9.38;100.00;93641.19;5037010;28;20251;-67
2024/01/18 03:26:49;;;;;;;0.40;0.40;;;;;;;9.48;100.00;93653.75;5038327;28;20221;-67
2024/01/18 03:29:16;;;;;;;0.47;0.47;;;;;;;9.45;100.00;93660.25;5040777;28;20205;-66
2024/01/18 03:31:43;;;;;;;0.40;0.40;;;;;;;9.41;100.00;93656.50;5040418;28;20205;-67
2024/01/18 03:34:11;;;;;;;1.20;0.50;;;;;;;9.56;100.00;93656.00;5040096;28;20217;-67
2024/01/18 03:36:37;;;;;;;0.40;0.40;;;;;;;9.33;100.00;93661.31;5039858;28;21180;-67
2024/01/18 03:39:06;;;;;;;0.70;0.50;;;;;;;9.18;100.00;93668.88;5040570;28;20201;-67
2024/01/18 03:41:32;;;;;;;0.60;0.60;;;;;;;9.14;100.00;93662.50;5040055;28;20671;-67
2024/01/18 03:43:59;;;;;;;0.53;0.50;;;;;;;9.30;100.00;93667.81;5040065;28;20238;-67
2024/01/18 03:46:25;;;;;;;0.77;0.50;;;;;;;9.26;100.00;93660.63;5039443;28;20225;-67
2024/01/18 03:48:52;;;;;;;0.63;0.63;;;;;;;9.44;100.00;93658.66;5038932;28;20300;-67
2024/01/18 03:51:19;;;;;;;0.67;0.50;;;;;;;9.47;100.00;93650.31;5038462;28;20205;-67
2024/01/18 03:53:46;;;;;;;4.70;1.67;;;;;;;9.12;100.00;93664.53;5040047;28;20231;-66
2024/01/18 03:56:12;;;;;;;1.87;0.80;;;;;;;9.26;100.00;93660.63;5039280;28;20205;-67
2024/01/18 03:58:40;;;;;;;3.13;0.87;;;;;;;9.36;100.00;93660.84;5040511;28;20201;-67
2024/01/18 04:01:07;;;;;;;1.63;1.07;;;;;;;9.29;100.00;93665.44;5039783;28;20213;-67
2024/01/18 04:03:33;;;;;;;0.77;0.40;;;;;;;9.10;100.00;93669.25;5039708;28;20205;-67
2024/01/18 04:06:00;;;;;;;1.87;0.73;;;;;;;9.24;100.00;93668.75;5039299;28;20205;-67
2024/01/18 04:08:28;;;;;;;4.10;1.10;;;;;;;9.52;100.00;93665.38;5039694;28;20201;-67
2024/01/18 04:10:54;;;;;;;5.10;2.17;;;;;;;9.20;100.00;93669.44;5039682;28;20656;-67
2024/01/18 04:13:21;;;;;;;2.40;0.90;;;;;;;9.20;100.00;93669.44;5040269;28;20220;-68
2024/01/18 04:15:47;;;;;;;0.70;0.63;;;;;;;9.16;100.00;93678.81;5039533;28;20205;-67
2024/01/18 04:18:14;;;;;;;0.57;0.57;;;;;;;9.23;100.00;93671.63;5038484;28;20228;-67
2024/01/18 04:20:40;;;;;;;1.00;0.70;;;;;;;9.23;100.00;93666.38;5039026;28;20209;-67
2024/01/18 04:23:07;;;;;;;3.67;1.30;;;;;;;9.16;100.00;93665.69;5039572;28;20216;-67
2024/01/18 04:25:35;;;;;;;3.63;1.43;;;;;;;9.12;100.00;93669.78;5038778;28;21033;-67
2024/01/18 04:28:01;;;;;;;3.83;1.60;;;;;;;9.07;100.00;93667.06;5038753;28;20732;-67
2024/01/18 04:30:28;;;;;;;3.73;1.30;;;;;;;9.08;100.00;93670.50;5040112;28;20217;-67
2024/01/18 04:32:54;;;;;;;9.97;2.87;;;;;;;9.08;100.00;93668.66;5039013;28;20208;-67
2024/01/18 04:35:21;;;;;;;2.90;1.37;;;;;;;9.08;100.00;93675.75;5039084;28;20229;-67
2024/01/18 04:37:48;;;;;;;0.70;0.50;;;;;;;8.96;100.00;93675.75;5037702;28;20669;-67
2024/01/18 04:40:14;;;;;;;4.63;1.30;;;;;;;8.93;100.00;93673.56;5038977;28;20201;-67
2024/01/18 04:42:42;;;;;;;13.23;3.37;;;;;;;8.97;100.00;93668.66;5039615;28;20217;-67
2024/01/18 04:45:09;;;;;;;22.00;5.00;;;;;;;8.79;100.00;93677.44;5039333;28;20581;-67
2024/01/18 04:47:36;;;;;;;7.10;1.50;;;;;;;8.68;100.00;93672.19;5038663;28;20335;-67
2024/01/18 04:50:03;;;;;;;4.67;1.60;;;;;;;8.75;100.00;93673.69;5038146;28;20217;-67
2024/01/18 04:52:30;;;;;;;0.93;0.77;;;;;;;8.82;100.00;93687.50;5039522;28;20208;-67
2024/01/18 04:54:58;;;;;;;3.20;0.90;;;;;;;8.69;100.00;93684.28;5039171;28;20585;-67
2024/01/18 04:57:25;;;;;;;7.87;1.57;;;;;;;8.71;100.00;93688.28;5038256;28;20853;-67
2024/01/18 04:59:53;;;;;;;10.17;4.40;;;;;;;8.87;100.00;93671.06;5039177;28;20209;-67
2024/01/18 05:02:20;;;;;;;25.57;4.73;;;;;;;8.70;100.00;93670.13;5038555;28;20213;-67
2024/01/18 05:04:47;;;;;;;1.97;0.70;;;;;;;8.87;100.00;93671.88;5038980;28;20632;-67
2024/01/18 05:07:13;;;;;;;5.47;1.67;;;;;;;8.69;100.00;93668.53;5038190;28;20727;-68
2024/01/18 05:09:40;;;;;;;6.23;1.80;;;;;;;8.50;100.00;93659.97;5038849;28;20201;-67
2024/01/18 05:12:08;;;;;;;15.43;3.33;;;;;;;8.58;100.00;93664.88;5038829;28;20208;-67
2024/01/18 05:14:34;;;;;;;6.53;3.00;;;;;;;8.64;100.00;93668.41;5038534;28;20229;-67
2024/01/18 05:17:10;;;;;;;5.80;2.70;;;;;;;8.75;100.00;93660.53;5036963;28;20232;-68
2024/01/18 05:19:37;;;;;;;3.93;1.10;;;;;;;8.56;100.00;93672.16;5037802;28;20204;-67
2024/01/18 05:22:03;;;;;;;2.23;0.70;;;;;;;8.73;100.00;93674.94;5038982;28;20647;-67
2024/01/18 05:24:30;;;;;;;4.83;1.67;;;;;;;8.69;100.00;93676.41;5038430;28;20201;-67
2024/01/18 05:26:57;;;;;;;3.30;1.60;;;;;;;8.68;100.00;93678.25;5037638;28;20719;-67
2024/01/18 05:29:23;;;;;;;3.50;1.30;;;;;;;8.60;100.00;93670.72;5038270;28;20209;-67
2024/01/18 05:31:50;;;;;;;7.03;2.57;;;;;;;8.57;100.00;93673.78;5038438;28;20225;-67
2024/01/18 05:34:17;;;;;;;2.13;1.57;;;;;;;8.81;100.00;93678.03;5037473;28;20913;-67
2024/01/18 05:36:45;;;;;;;3.67;1.60;;;;;;;8.63;100.00;93670.25;5038055;28;20236;-67
2024/01/18 05:39:12;;;;;;;7.87;2.10;;;;;;;8.70;100.00;93670.13;5038560;28;20232;-67
2024/01/18 05:41:38;;;;;;;10.27;2.40;;;;;;;8.60;100.00;93669.91;5037572;28;20710;-67
2024/01/18 05:44:05;;;;;;;15.47;3.50;;;;;;;8.56;100.00;93674.00;5038112;28;20209;-67
2024/01/18 05:46:32;;;;;;;8.03;2.50;;;;;;;8.31;100.00;93670.78;5037480;28;20223;-67
2024/01/18 05:48:58;;;;;;;3.67;1.40;;;;;;;8.51;100.00;93674.69;5036420;28;20208;-67
2024/01/18 05:51:26;;;;;;;9.10;2.03;;;;;;;8.67;100.00;93671.38;5038036;28;20211;-67
2024/01/18 05:53:53;;;;;;;1.47;1.20;;;;;;;8.54;100.00;93670.78;5037794;28;20209;-67
2024/01/18 05:56:19;;;;;;;5.17;1.30;;;;;;;8.53;100.00;93664.75;5036931;28;20227;-67
2024/01/18 05:58:46;;;;;;;2.87;0.97;;;;;;;8.54;100.00;93660.28;5037823;28;20201;-67
2024/01/18 06:01:12;;;;;;;5.20;1.67;;;;;;;8.46;100.00;93665.09;5037684;28;20213;-66
2024/01/18 06:03:39;;;;;;;2.83;1.50;;;;;;;8.50;100.00;93662.59;5037502;28;20201;-67
2024/01/18 06:06:06;;;;;;;5.63;2.23;;;;;;;8.50;100.00;93652.09;5037414;28;20220;-67
2024/01/18 06:08:34;;;;;;;3.57;1.60;;;;;;;8.69;100.00;93655.41;5037213;28;20215;-67
2024/01/18 06:11:01;;;;;;;1.67;0.90;;;;;;;8.23;100.00;93655.34;5037467;28;20205;-67
2024/01/18 06:13:28;;;;;;;4.60;1.73;;;;;;;8.53;100.00;93649.00;5037441;28;20288;-66
2024/01/18 06:15:54;;;;;;;4.93;1.60;;;;;;;8.54;100.00;93649.78;5036712;28;20221;-67
2024/01/18 06:18:21;;;;;;;3.77;2.17;;;;;;;8.47;100.00;93657.00;5036302;28;20221;-67
2024/01/18 06:20:47;;;;;;;1.47;0.93;;;;;;;8.41;100.00;93657.09;5036869;28;20209;-67
2024/01/18 06:23:14;;;;;;;1.40;0.80;;;;;;;8.56;100.00;93664.28;5037307;28;20894;-67
2024/01/18 06:25:42;;;;;;;1.90;0.60;;;;;;;8.80;100.00;93658.03;5036210;28;20201;-68
2024/01/18 06:28:10;;;;;;;1.90;0.90;;;;;;;8.61;100.00;93653.13;5036290;28;20221;-68
2024/01/18 06:30:43;;;;;;;1.97;1.10;;;;;;;8.62;100.00;93647.66;5037786;28;20225;-67
2024/01/18 06:33:09;;;;;;;0.77;0.77;;;;;;;8.60;100.00;93647.09;5037274;28;20205;-68
2024/01/18 06:35:36;;;;;;;0.67;0.50;;;;;;;8.59;100.00;93653.38;5036949;28;20228;-69
2024/01/18 06:38:02;;;;;;;4.03;0.60;;;;;;;8.61;100.00;93650.50;5036933;28;20689;-67
2024/01/18 06:40:29;;;;;;;3.40;1.30;;;;;;;8.49;100.00;93647.88;5037180;28;20201;-68
2024/01/18 06:42:57;;;;;;;1.60;0.70;;;;;;;8.70;100.00;93649.13;5036838;28;20209;-68
2024/01/18 06:45:23;;;;;;;2.73;0.90;;;;;;;8.62;100.00;93649.50;5037003;28;20659;-68
2024/01/18 06:47:50;;;;;;;1.90;1.00;;;;;;;8.61;100.00;93640.78;5035996;28;20232;-68
2024/01/18 06:50:16;;;;;;;3.23;0.83;;;;;;;8.58;100.00;93638.63;5036557;28;20197;-68
2024/01/18 06:52:43;;;;;;;2.80;0.97;;;;;;;8.63;100.00;93636.13;5037378;28;20213;-68
2024/01/18 06:55:09;;;;;;;3.77;1.30;;;;;;;8.63;100.00;93633.50;5036647;28;20227;-67
2024/01/18 06:57:36;;;;;;;4.10;1.57;;;;;;;8.64;100.00;93629.03;5036493;28;20227;-67
2024/01/18 07:00:05;;;;;;;4.30;0.67;;;;;;;8.91;100.00;93636.25;5037028;28;20228;-68
2024/01/18 07:02:33;;;;;;;2.30;1.13;;;;;;;8.74;100.00;93640.56;5040431;28;20213;-68
2024/01/18 07:05:00;;;;;;;0.40;0.40;;;;;;;8.60;100.00;93646.28;5040523;28;20292;-68
2024/01/18 07:07:27;;;;;;;1.17;0.90;;;;;;;8.59;100.00;93640.25;5040500;28;20308;-68
2024/01/18 07:09:53;;;;;;;1.60;0.70;;;;;;;8.57;100.00;93644.91;5040278;28;20224;-68
2024/01/18 07:12:20;;;;;;;4.30;0.70;;;;;;;8.60;100.00;93644.47;5040616;28;20243;-68
2024/01/18 07:14:46;;;;;;;0.57;0.57;;;;;;;8.77;100.00;93645.38;5040970;28;20220;-68
2024/01/18 07:17:14;;;;;;;0.90;0.43;;;;;;;8.95;100.00;93647.88;5039329;28;20335;-68
2024/01/18 07:19:41;;;;;;;2.27;0.40;;;;;;;8.81;100.00;93643.91;5040226;28;20205;-68
2024/01/18 07:22:07;;;;;;;1.17;0.50;;;;;;;8.76;100.00;93649.03;5037631;28;20635;-68
2024/01/18 07:24:34;;;;;;;0.70;0.43;;;;;;;8.95;100.00;93647.88;5039044;28;20198;-68
2024/01/18 07:27:01;;;;;;;0.40;0.40;;;;;;;8.90;100.00;93650.41;5038088;28;20231;-69
2024/01/18 07:29:27;;;;;;;0.60;0.50;;;;;;;8.91;100.00;93659.06;5039197;28;20582;-69
2024/01/18 07:31:54;;;;;;;0.93;0.70;;;;;;;8.87;100.00;93650.88;5039171;28;20243;-68
2024/01/18 07:34:22;;;;;;;0.50;0.50;;;;;;;9.00;100.00;93650.63;5038317;28;20699;-68
2024/01/18 07:36:48;;;;;;;0.47;0.47;;;;;;;8.78;100.00;93646.16;5038623;28;21035;-69
2024/01/18 07:39:15;;;;;;;0.70;0.50;;;;;;;8.98;100.00;93651.88;5038554;28;20693;-69
2024/01/18 07:41:42;;;;;;;0.50;0.50;;;;;;;9.02;100.00;93648.56;5038910;28;20205;-68
2024/01/18 07:44:09;;;;;;;1.07;0.87;;;;;;;8.92;100.00;93647.53;5038042;28;20205;-69
2024/01/18 07:46:35;;;;;;;1.60;0.90;;;;;;;9.01;100.00;93651.41;5036970;28;20221;-68
2024/01/18 07:49:03;;;;;;;1.58;1.00;;;;;;;8.83;100.00;93648.91;5037029;28;20436;-68
2024/01/18 07:51:31;;;;;;;1.00;0.70;;;;;;;9.10;100.00;93638.50;5038248;28;20216;-68
2024/01/18 07:53:57;;;;;;;4.13;0.60;;;;;;;9.00;100.00;93641.94;5038816;28;20205;-68
2024/01/18 07:56:24;;;;;;;1.37;0.70;;;;;;;8.91;100.00;93635.44;5038281;28;20225;-69
2024/01/18 07:58:50;;;;;;;2.27;1.10;;;;;;;9.01;100.00;93639.06;5038306;28;20920;-68
2024/01/18 08:01:18;;;;;;;0.90;0.60;;;;;;;8.87;100.00;93635.13;5038481;28;20215;-69
2024/01/18 08:03:44;;;;;;;2.20;0.60;;;;;;;9.07;100.00;93634.75;5038356;28;20204;-68
2024/01/18 08:06:12;;;;;;;0.67;0.40;;;;;;;9.21;100.00;93639.50;5037887;28;20204;-68
2024/01/18 08:08:40;;;;;;;1.03;0.60;;;;;;;9.28;100.00;93638.38;5038319;28;20667;-68
2024/01/18 08:11:09;;;;;;;0.53;0.53;;;;;;;9.52;100.00;93633.84;5038472;28;20749;-68
2024/01/18 08:13:36;;;;;;;1.80;0.80;;;;;;;9.42;100.00;93631.00;5037947;28;20205;-68
2024/01/18 08:16:03;;;;;;;1.63;0.87;;;;;;;9.38;100.00;93640.38;5037873;28;21333;-69
2024/01/18 08:18:29;;;;;;;2.30;0.60;;;;;;;9.39;100.00;93640.16;5036818;28;20201;-68
2024/01/18 08:20:56;;;;;;;0.40;0.40;;;;;;;9.64;100.00;93629.38;5037609;28;20201;-68
2024/01/18 08:23:23;;;;;;;0.83;0.50;;;;;;;9.70;100.00;93626.59;5038615;28;20650;-68
2024/01/18 08:25:51;;;;;;;0.40;0.40;;;;;;;9.81;100.00;93644.97;5037378;28;20284;-68
2024/01/18 08:28:18;;;;;;;0.43;0.43;;;;;;;9.72;100.00;93630.59;5037034;28;20340;-68
2024/01/18 08:30:44;;;;;;;0.77;0.50;;;;;;;9.74;100.00;93639.03;5037432;28;20209;-69
2024/01/18 08:33:11;;;;;;;0.73;0.73;;;;;;;9.75;100.00;93643.25;5037914;28;20201;-68
2024/01/18 08:35:38;;;;;;;0.70;0.60;;;;;;;9.93;100.00;93640.44;5036202;28;20229;-69
2024/01/18 08:38:05;;;;;;;0.70;0.60;;;;;;;10.06;100.00;93642.81;5036752;28;20225;-69
2024/01/18 08:40:31;;;;;;;0.40;0.40;;;;;;;10.05;100.00;93646.47;5036842;28;20201;-68
2024/01/18 08:42:59;;;;;;;0.47;0.40;;;;;;;9.99;100.00;93642.16;5036767;28;20205;-69
2024/01/18 08:45:27;;;;;;;1.37;0.60;;;;;;;10.01;100.00;93645.34;5036536;28;20308;-69
2024/01/18 08:47:55;;;;;;;0.97;0.40;;;;;;;10.06;100.00;93653.34;5035839;28;20796;-68
2024/01/18 08:50:23;;;;;;;1.80;0.60;;;;;;;10.01;100.00;93650.59;5036085;28;20201;-69
2024/01/18 08:52:51;;;;;;;0.53;0.53;;;;;;;10.05;100.00;93645.69;5037289;28;20209;-68
2024/01/18 08:55:18;;;;;;;2.27;0.90;;;;;;;10.17;100.00;93649.03;5036763;28;20376;-68
2024/01/18 08:57:44;;;;;;;1.60;0.80;;;;;;;10.06;100.00;93652.53;5036201;28;20719;-68
2024/01/18 09:00:17;;;;;;;0.93;0.53;;;;;;;10.27;100.00;93646.59;5036859;28;20209;-68
2024/01/18 09:02:44;;;;;;;0.53;0.50;;;;;;;10.28;100.00;93646.34;5036690;28;20224;-68
2024/01/18 09:05:11;;;;;;;0.70;0.70;;;;;;;10.26;100.00;93643.19;5035949;28;20211;-68
2024/01/18 09:07:37;;;;;;;0.40;0.40;;;;;;;10.31;100.00;93647.72;5036358;28;20240;-69
2024/01/18 09:10:05;;;;;;;0.50;0.50;;;;;;;10.65;100.00;93644.88;5036868;28;20232;-68
2024/01/18 09:12:31;;;;;;;1.50;0.87;;;;;;;10.54;100.00;93653.66;5036978;28;20209;-69
2024/01/18 09:14:58;;;;;;;0.60;0.60;;;;;;;10.57;100.00;93658.44;5036217;28;20209;-69
2024/01/18 09:17:26;;;;;;;0.50;0.50;;;;;;;10.88;100.00;93653.38;5035768;28;20225;-69
2024/01/18 09:19:52;;;;;;;0.43;0.43;;;;;;;10.80;100.00;93653.00;5035758;28;20580;-69
2024/01/18 09:22:19;;;;;;;0.47;0.47;;;;;;;10.83;100.00;93655.16;5036848;28;20208;-69
2024/01/18 09:24:46;;;;;;;0.60;0.60;;;;;;;10.93;100.00;93654.28;5036228;28;20212;-69
2024/01/18 09:27:12;;;;;;;0.63;0.50;;;;;;;10.93;100.00;93664.81;5036259;28;20921;-69
2024/01/18 09:29:39;;;;;;;0.70;0.70;;;;;;;10.95;100.00;93659.31;5036668;28;20205;-68
2024/01/18 09:32:06;;;;;;;0.57;0.50;;;;;;;10.99;100.00;93663.84;5037370;28;20205;-69
2024/01/18 09:34:34;;;;;;;0.40;0.40;;;;;;;11.04;100.00;93663.13;5034558;28;20639;-69
2024/01/18 09:37:01;;;;;;;0.50;0.50;;;;;;;10.88;100.00;93666.56;5035350;28;20225;-69
2024/01/18 09:39:28;;;;;;;1.13;0.80;;;;;;;10.87;100.00;93664.16;5035714;28;20197;-69
2024/01/18 09:41:55;;;;;;;0.40;0.40;;;;;;;10.72;100.00;93674.50;5035868;28;20205;-68
2024/01/18 09:44:25;;;;;;;0.60;0.60;;;;;;;10.95;100.00;93670.63;5036431;28;20215;-68
2024/01/18 09:46:53;;;;;;;0.40;0.40;;;;;;;10.97;100.00;93678.28;5034700;28;20217;-68
2024/01/18 09:49:20;;;;;;;0.30;0.30;;;;;;;10.79;100.00;93683.00;5035458;28;20201;-68
2024/01/18 09:51:48;;;;;;;0.60;0.40;;;;;;;11.19;100.00;93674.69;5035945;28;20212;-68
2024/01/18 09:54:15;;;;;;;0.50;0.50;;;;;;;10.90;100.00;93677.66;5036053;28;20209;-68
2024/01/18 09:56:45;;;;;;;0.60;0.60;;;;;;;11.25;100.00;93675.53;5035221;28;20239;-68
2024/01/18 09:59:15;;;;;;;0.40;0.40;;;;;;;11.19;100.00;93668.63;5036175;28;20209;-68
2024/01/18 10:01:42;;;;;;;1.33;0.80;;;;;;;11.48;100.00;93675.34;5035486;28;20417;-68
2024/01/18 10:04:12;;;;;;;0.30;0.30;;;;;;;11.77;100.00;93680.22;5036080;28;20201;-68
2024/01/18 10:06:39;;;;;;;0.63;0.50;;;;;;;11.63;100.00;93679.00;5035138;28;20227;-68
2024/01/18 10:09:10;;;;;;;2.43;0.50;;;;;;;11.78;100.00;93687.09;5035916;28;20733;-67
2024/01/18 10:11:36;;;;;;;0.67;0.60;;;;;;;11.64;100.00;93675.31;5034301;28;20238;-68
2024/01/18 10:14:03;;;;;;;2.47;1.70;;;;;;;11.73;100.00;93673.84;5035847;28;20193;-68
2024/01/18 10:16:33;;;;;;;0.40;0.40;;;;;;;11.87;100.00;93680.34;5035068;28;20333;-68
2024/01/18 10:19:00;;;;;;;0.93;0.50;;;;;;;11.95;100.00;93682.56;5034024;28;20197;-68
2024/01/18 10:21:27;;;;;;;0.43;0.43;;;;;;;11.88;100.00;93677.47;5035505;28;20250;-68
2024/01/18 10:23:55;;;;;;;1.80;0.90;;;;;;;12.16;100.00;93668.56;5035910;28;20205;-68
2024/01/18 10:26:23;;;;;;;0.50;0.50;;;;;;;12.43;100.00;93670.94;5036003;28;20647;-68
2024/01/18 10:28:50;;;;;;;0.77;0.53;;;;;;;12.17;100.00;93671.72;5037024;28;20213;-68
2024/01/18 10:31:16;;;;;;;0.30;0.30;;;;;;;11.86;100.00;93669.00;5036474;28;20197;-68
2024/01/18 10:33:43;;;;;;;0.50;0.40;;;;;;;12.06;100.00;93658.66;5036073;28;20227;-68
2024/01/18 10:36:09;;;;;;;0.50;0.50;;;;;;;12.11;100.00;93666.66;5034634;28;20248;-68
2024/01/18 10:38:39;;;;;;;0.30;0.30;;;;;;;11.91;100.00;93655.06;5036046;28;20197;-69
2024/01/18 10:41:05;;;;;;;0.30;0.30;;;;;;;12.06;100.00;93655.25;5036572;28;20200;-68
2024/01/18 10:43:34;;;;;;;0.40;0.40;;;;;;;12.29;100.00;93659.16;5036126;28;20208;-68
2024/01/18 10:46:01;;;;;;;2.77;0.90;;;;;;;12.64;100.00;93656.06;5036236;28;20198;-68
2024/01/18 10:48:28;;;;;;;0.97;0.67;;;;;;;12.56;100.00;93654.66;5034906;28;20577;-68
2024/01/18 10:50:56;;;;;;;0.43;0.43;;;;;;;12.45;100.00;93654.84;5035941;28;20209;-68
2024/01/18 10:53:24;;;;;;;0.40;0.40;;;;;;;12.54;100.00;93648.84;5036605;28;20209;-68
2024/01/18 10:55:51;;;;;;;1.30;0.80;;;;;;;12.47;100.00;93650.88;5035480;28;20289;-69
2024/01/18 10:58:18;;;;;;;1.63;0.50;;;;;;;12.50;100.00;93649.59;5036334;28;20950;-69
2024/01/18 11:00:47;;;;;;;0.60;0.53;;;;;;;12.70;100.00;93650.56;5035615;28;20224;-69
2024/01/18 11:03:13;;;;;;;0.30;0.30;;;;;;;12.64;100.00;93653.41;5035630;28;20610;-69
2024/01/18 11:05:41;;;;;;;0.60;0.60;;;;;;;12.65;100.00;93655.81;5035787;28;20205;-69
2024/01/18 11:08:08;;;;;;;0.30;0.30;;;;;;;12.37;100.00;93664.03;5034858;28;20567;-69
2024/01/18 11:10:35;;;;;;;0.40;0.40;;;;;;;12.43;100.00;93655.09;5036958;28;20207;-69
2024/01/18 11:13:02;;;;;;;0.50;0.50;;;;;;;12.83;100.00;93655.47;5035797;28;20205;-69
2024/01/18 11:15:29;;;;;;;0.30;0.30;;;;;;;12.83;100.00;93650.97;5036183;28;20211;-69
2024/01/18 11:17:58;;;;;;;0.47;0.47;;;;;;;13.15;100.00;93654.41;5035144;28;20233;-69
2024/01/18 11:20:25;;;;;;;0.40;0.40;;;;;;;12.67;100.00;93651.09;5035720;28;20217;-69
2024/01/18 11:22:58;;;;;;;0.60;0.60;;;;;;;12.59;100.00;93654.19;5036495;28;20202;-69
2024/01/18 11:25:29;;;;;;;0.93;0.70;;;;;;;12.69;100.00;93654.28;5036424;28;20211;-69
2024/01/18 11:27:55;;;;;;;0.30;0.30;;;;;;;12.77;100.00;93653.81;5035934;28;20278;-69
2024/01/18 11:30:36;;;;;;;0.57;0.30;;;;;;;12.92;100.00;93661.91;5036379;28;20220;-69